Alexander 3 — SW6137 — position and weather

sailwx.info

Track history (hours):
 
Tides and Currents Weather Stations Pressure Air Temp Water Temp Dewpoint Dewpoint Depression Visibility Wind Speed Wind Dir Waves Ship Positions

Alexander 3

Last reported at 2014-Dec-22 07:33 UTC. Time now 2014-Dec-22 07:50 UTC.
Position N 37°60' E 023°33'.

Length 38 m; draft 5.6 m.

Type: Tug. MMSI: 240733000.

Date/timePositionNaut miles runAvg speedWind from/ knotsBaromVisibWave heightAir tempDewpointWater temp
2014-Dec-22 07:33N 37°60' E 023°33'3 3.5
2014-Dec-22 06:33N 37°57' E 023°36'0 0.4
2014-Dec-22 05:33N 37°57' E 023°36'0 0.4
2014-Dec-22 04:33N 37°57' E 023°35'2 1.8
2014-Dec-22 03:33N 37°56' E 023°37'0 0.0
2014-Dec-22 02:33N 37°56' E 023°37'0 0.0
2014-Dec-22 01:33N 37°56' E 023°37'0 0.0
2014-Dec-22 00:33N 37°56' E 023°37'0 0.0
2014-Dec-21 23:33N 37°56' E 023°37'0 0.0
2014-Dec-21 22:33N 37°56' E 023°37'0 0.0
2014-Dec-21 21:33N 37°56' E 023°37'6 6.3
2014-Dec-21 20:33N 38°01' E 023°32'2 1.6
2014-Dec-21 19:34N 38°02' E 023°31'1 1.0
2014-Dec-21 18:33N 38°01' E 023°31'5 5.3
2014-Dec-21 17:33N 37°57' E 023°36'0 0.0
2014-Dec-21 16:33N 37°57' E 023°36'2 1.6
2014-Dec-21 15:33N 37°56' E 023°35'1 1.2
2014-Dec-21 14:33N 37°57' E 023°36'1 0.8
2014-Dec-21 13:33N 37°57' E 023°37'0 0.0
2014-Dec-21 12:33N 37°57' E 023°37'0 0.0
2014-Dec-21 11:33N 37°57' E 023°37'0 0.0
2014-Dec-21 10:33N 37°57' E 023°37'0 0.0
2014-Dec-21 09:33N 37°57' E 023°37'0 0.0
2014-Dec-21 08:33N 37°57' E 023°37'0 0.0
2014-Dec-21 07:33N 37°57' E 023°37'0 0.0
2014-Dec-21 06:33N 37°57' E 023°37'1 1.1
2014-Dec-21 05:33N 37°57' E 023°35'2 1.9
2014-Dec-21 04:33N 37°56' E 023°37'1 0.1
2014-Dec-20 11:34N 37°57' E 023°36'2 2.0
2014-Dec-20 10:33N 37°58' E 023°34'0 0.0
2014-Dec-20 09:33N 37°58' E 023°34'0 0.0
2014-Dec-20 08:33N 37°58' E 023°34'0 0.0
2014-Dec-20 07:33N 37°58' E 023°34'0 0.0
2014-Dec-20 06:33N 37°58' E 023°34'0 0.0
2014-Dec-20 05:33N 37°58' E 023°34'1 1.2
2014-Dec-20 04:34N 37°57' E 023°35'2 0.1
2014-Dec-19 11:34N 37°56' E 023°37'3 3.2
2014-Dec-19 10:33N 37°58' E 023°34'0 0.0
2014-Dec-19 09:33N 37°58' E 023°34'0 0.0
2014-Dec-19 08:34N 37°58' E 023°34'0 0.0
2014-Dec-19 07:33N 37°58' E 023°34'0 0.0
2014-Dec-19 06:34N 37°58' E 023°34'1 1.3
2014-Dec-19 05:33N 37°57' E 023°35'2 1.9
2014-Dec-19 04:33N 37°56' E 023°37'0 0.0
2014-Dec-18 11:33N 37°56' E 023°37'0 0.0
2014-Dec-18 10:33N 37°56' E 023°37'0 0.0
2014-Dec-18 09:33N 37°56' E 023°37'3 3.2
2014-Dec-18 08:33N 37°58' E 023°34'4 4.1
2014-Dec-18 07:33N 38°01' E 023°36'2 2.1
2014-Dec-18 06:33N 38°00' E 023°33'3 2.7
2014-Dec-18 05:33N 37°58' E 023°33'4 3.6
2014-Dec-18 04:33N 37°56' E 023°37'0 0.0
2014-Dec-17 16:33N 37°56' E 023°37'1 1.4
2014-Dec-17 15:33N 37°57' E 023°36'0 0.4
2014-Dec-17 14:33N 37°57' E 023°36'2 1.1
2014-Dec-17 13:07N 37°56' E 023°37'0 0.0
2014-Dec-17 12:30N 37°56' E 023°37'0 0.0
2014-Dec-17 11:33N 37°56' E 023°37'0 0.0
2014-Dec-17 10:31N 37°56' E 023°37'0 0.0
2014-Dec-17 09:33N 37°56' E 023°37'0 0.0
2014-Dec-16 12:04N 37°56' E 023°37'4 7.8
2014-Dec-16 11:34N 37°58' E 023°33'4 4.0
2014-Dec-16 10:32N 38°02' E 023°35'4 4.4
2014-Dec-16 09:34N 37°57' E 023°35'0 0.1
2014-Dec-16 08:34N 37°57' E 023°35'0 0.2
2014-Dec-16 07:33N 37°57' E 023°35'0 0.3
2014-Dec-16 06:34N 37°57' E 023°36'1 1.3
2014-Dec-16 05:34N 37°56' E 023°37'1 0.7
2014-Dec-16 04:33N 37°56' E 023°37'0 0.0
2014-Dec-16 03:32N 37°56' E 023°37'1 0.0
2014-Dec-15 11:34N 37°56' E 023°37'2 2.5
2014-Dec-15 10:34N 37°57' E 023°34'0 0.0
2014-Dec-15 09:33N 37°57' E 023°34'1 1.2
2014-Dec-15 08:34N 37°57' E 023°35'0 0.4
2014-Dec-15 07:34N 37°57' E 023°35'0 0.4
2014-Dec-15 06:33N 37°57' E 023°35'1 1.4
2014-Dec-15 05:34N 37°56' E 023°36'1 0.9
2014-Dec-15 04:33N 37°56' E 023°37'0 0.0
2014-Dec-13 11:33N 37°56' E 023°37'1 1.1
2014-Dec-13 10:33N 37°55' E 023°36'2 1.9
2014-Dec-13 09:33N 37°57' E 023°36'0 0.0
2014-Dec-13 08:33N 37°57' E 023°36'0 0.0
2014-Dec-13 07:33N 37°57' E 023°36'0 0.1
2014-Dec-13 06:33N 37°57' E 023°36'2 2.2
2014-Dec-13 05:33N 37°55' E 023°36'2 1.6
2014-Dec-13 04:33N 37°56' E 023°37'0 0.0
2014-Dec-13 03:33N 37°56' E 023°37'0 0.0
2014-Dec-12 12:11N 37°56' E 023°37'2 2.4
2014-Dec-12 11:33N 37°57' E 023°37'0 0.0
2014-Dec-12 10:33N 37°57' E 023°37'0 0.0
2014-Dec-12 09:33N 37°57' E 023°37'0 0.0
2014-Dec-12 08:33N 37°57' E 023°37'0 0.0
2014-Dec-12 07:33N 37°57' E 023°37'  
Track history (hours):
 
Tides and Currents Weather Stations Pressure Air Temp Water Temp Dewpoint Dewpoint Depression Visibility Wind Speed Wind Dir Waves Ship Positions

Alexander 3

Last reported at 2014-Dec-22 07:33 UTC. Time now 2014-Dec-22 07:50 UTC.
Position N 37°60' E 023°33'.

Length 38 m; draft 5.6 m.

Type: Tug. MMSI: 240733000.

Date/timePositionNaut miles runAvg speedWind from/ knotsBaromVisibWave heightAir tempDewpointWater temp
2014-Dec-22 07:33N 37°60' E 023°33'3 3.5
2014-Dec-22 06:33N 37°57' E 023°36'0 0.4
2014-Dec-22 05:33N 37°57' E 023°36'0 0.4
2014-Dec-22 04:33N 37°57' E 023°35'2 1.8
2014-Dec-22 03:33N 37°56' E 023°37'0 0.0
2014-Dec-22 02:33N 37°56' E 023°37'0 0.0
2014-Dec-22 01:33N 37°56' E 023°37'0 0.0
2014-Dec-22 00:33N 37°56' E 023°37'0 0.0
2014-Dec-21 23:33N 37°56' E 023°37'0 0.0
2014-Dec-21 22:33N 37°56' E 023°37'0 0.0
2014-Dec-21 21:33N 37°56' E 023°37'6 6.3
2014-Dec-21 20:33N 38°01' E 023°32'2 1.6
2014-Dec-21 19:34N 38°02' E 023°31'1 1.0
2014-Dec-21 18:33N 38°01' E 023°31'5 5.3
2014-Dec-21 17:33N 37°57' E 023°36'0 0.0
2014-Dec-21 16:33N 37°57' E 023°36'2 1.6
2014-Dec-21 15:33N 37°56' E 023°35'1 1.2
2014-Dec-21 14:33N 37°57' E 023°36'1 0.8
2014-Dec-21 13:33N 37°57' E 023°37'0 0.0
2014-Dec-21 12:33N 37°57' E 023°37'0 0.0
2014-Dec-21 11:33N 37°57' E 023°37'0 0.0
2014-Dec-21 10:33N 37°57' E 023°37'0 0.0
2014-Dec-21 09:33N 37°57' E 023°37'0 0.0
2014-Dec-21 08:33N 37°57' E 023°37'0 0.0
2014-Dec-21 07:33N 37°57' E 023°37'0 0.0
2014-Dec-21 06:33N 37°57' E 023°37'1 1.1
2014-Dec-21 05:33N 37°57' E 023°35'2 1.9
2014-Dec-21 04:33N 37°56' E 023°37'1 0.1
2014-Dec-20 11:34N 37°57' E 023°36'2 2.0
2014-Dec-20 10:33N 37°58' E 023°34'0 0.0
2014-Dec-20 09:33N 37°58' E 023°34'0 0.0
2014-Dec-20 08:33N 37°58' E 023°34'0 0.0
2014-Dec-20 07:33N 37°58' E 023°34'0 0.0
2014-Dec-20 06:33N 37°58' E 023°34'0 0.0
2014-Dec-20 05:33N 37°58' E 023°34'1 1.2
2014-Dec-20 04:34N 37°57' E 023°35'2 0.1
2014-Dec-19 11:34N 37°56' E 023°37'3 3.2
2014-Dec-19 10:33N 37°58' E 023°34'0 0.0
2014-Dec-19 09:33N 37°58' E 023°34'0 0.0
2014-Dec-19 08:34N 37°58' E 023°34'0 0.0
2014-Dec-19 07:33N 37°58' E 023°34'0 0.0
2014-Dec-19 06:34N 37°58' E 023°34'1 1.3
2014-Dec-19 05:33N 37°57' E 023°35'2 1.9
2014-Dec-19 04:33N 37°56' E 023°37'0 0.0
2014-Dec-18 11:33N 37°56' E 023°37'0 0.0
2014-Dec-18 10:33N 37°56' E 023°37'0 0.0
2014-Dec-18 09:33N 37°56' E 023°37'3 3.2
2014-Dec-18 08:33N 37°58' E 023°34'4 4.1
2014-Dec-18 07:33N 38°01' E 023°36'2 2.1
2014-Dec-18 06:33N 38°00' E 023°33'3 2.7
2014-Dec-18 05:33N 37°58' E 023°33'4 3.6
2014-Dec-18 04:33N 37°56' E 023°37'0 0.0
2014-Dec-17 16:33N 37°56' E 023°37'1 1.4
2014-Dec-17 15:33N 37°57' E 023°36'0 0.4
2014-Dec-17 14:33N 37°57' E 023°36'2 1.1
2014-Dec-17 13:07N 37°56' E 023°37'0 0.0
2014-Dec-17 12:30N 37°56' E 023°37'0 0.0
2014-Dec-17 11:33N 37°56' E 023°37'0 0.0
2014-Dec-17 10:31N 37°56' E 023°37'0 0.0
2014-Dec-17 09:33N 37°56' E 023°37'0 0.0
2014-Dec-16 12:04N 37°56' E 023°37'4 7.8
2014-Dec-16 11:34N 37°58' E 023°33'4 4.0
2014-Dec-16 10:32N 38°02' E 023°35'4 4.4
2014-Dec-16 09:34N 37°57' E 023°35'0 0.1
2014-Dec-16 08:34N 37°57' E 023°35'0 0.2
2014-Dec-16 07:33N 37°57' E 023°35'0 0.3
2014-Dec-16 06:34N 37°57' E 023°36'1 1.3
2014-Dec-16 05:34N 37°56' E 023°37'1 0.7
2014-Dec-16 04:33N 37°56' E 023°37'0 0.0
2014-Dec-16 03:32N 37°56' E 023°37'1 0.0
2014-Dec-15 11:34N 37°56' E 023°37'2 2.5
2014-Dec-15 10:34N 37°57' E 023°34'0 0.0
2014-Dec-15 09:33N 37°57' E 023°34'1 1.2
2014-Dec-15 08:34N 37°57' E 023°35'0 0.4
2014-Dec-15 07:34N 37°57' E 023°35'0 0.4
2014-Dec-15 06:33N 37°57' E 023°35'1 1.4
2014-Dec-15 05:34N 37°56' E 023°36'1 0.9
2014-Dec-15 04:33N 37°56' E 023°37'0 0.0
2014-Dec-13 11:33N 37°56' E 023°37'1 1.1
2014-Dec-13 10:33N 37°55' E 023°36'2 1.9
2014-Dec-13 09:33N 37°57' E 023°36'0 0.0
2014-Dec-13 08:33N 37°57' E 023°36'0 0.0
2014-Dec-13 07:33N 37°57' E 023°36'0 0.1
2014-Dec-13 06:33N 37°57' E 023°36'2 2.2
2014-Dec-13 05:33N 37°55' E 023°36'2 1.6
2014-Dec-13 04:33N 37°56' E 023°37'0 0.0
2014-Dec-13 03:33N 37°56' E 023°37'0 0.0
2014-Dec-12 12:11N 37°56' E 023°37'2 2.4
2014-Dec-12 11:33N 37°57' E 023°37'0 0.0
2014-Dec-12 10:33N 37°57' E 023°37'0 0.0
2014-Dec-12 09:33N 37°57' E 023°37'0 0.0
2014-Dec-12 08:33N 37°57' E 023°37'0 0.0
2014-Dec-12 07:33N 37°57' E 023°37'  

Dump ship's entire track history